Time;durP1;ratioP1;P1;durP2;ratioP2;P2;SDS_P1;SDS_P2;PMS_P1;PMS_P2;Temp;Humidity;BMP_temperature;BMP_pressure;BME280_temperature;BME280_humidity;BME280_pressure;Samples;Min_cycle;Max_cycle;Signal;HPM_P1;HPM_P2
2023/09/22 00:01:36;;;;;;;8.95;3.88;;;;;;;;;;6064327;23;20713;-94
2023/09/22 00:04:44;;;;;;;9.60;4.43;;;;;;;;;;6080214;23;20174;-89
2023/09/22 00:07:49;;;;;;;8.40;4.32;;;;;;;;;;6080704;23;20178;-91
2023/09/22 00:10:55;;;;;;;8.52;3.92;;;;;;;;;;6063522;23;20174;-95
2023/09/22 00:14:01;;;;;;;10.30;4.07;;;;;;;;;;6063267;23;20158;-93
2023/09/22 00:17:06;;;;;;;12.57;5.10;;;;;;;;;;6080401;23;20175;-94
2023/09/22 00:20:15;;;;;;;5.75;3.67;;;;;;;;;;6079988;23;20266;-93
2023/09/22 00:23:20;;;;;;;19.30;4.07;;;;;;;;;;6063381;23;20178;-92
2023/09/22 00:26:25;;;;;;;7.25;3.92;;;;;;;;;;6081166;23;20186;-95
2023/09/22 00:29:30;;;;;;;6.82;3.65;;;;;;;;;;6081640;23;20178;-90
2023/09/22 00:32:35;;;;;;;10.77;3.67;;;;;;;;;;6063570;23;20166;-92
2023/09/22 00:35:42;;;;;;;9.73;4.03;;;;;;;;;;6080280;23;20645;-93
2023/09/22 00:38:47;;;;;;;9.73;4.40;;;;;;;;;;6079902;23;20170;-94
2023/09/22 00:41:55;;;;;;;8.82;4.00;;;;;;;;;;6080653;23;20214;-94
2023/09/22 00:45:00;;;;;;;7.03;3.80;;;;;;;;;;6081021;23;20174;-93
2023/09/22 00:48:06;;;;;;;9.77;4.20;;;;;;;;;;6082759;23;20174;-91
2023/09/22 00:51:14;;;;;;;9.30;4.10;;;;;;;;;;6082129;23;20173;-91
2023/09/22 00:54:20;;;;;;;9.38;3.70;;;;;;;;;;6065313;23;20178;-91
2023/09/22 00:57:25;;;;;;;12.07;3.97;;;;;;;;;;6064570;23;20215;-93
2023/09/22 01:00:30;;;;;;;10.90;4.25;;;;;;;;;;6082497;23;20238;-93
2023/09/22 01:03:35;;;;;;;10.10;4.00;;;;;;;;;;6065213;23;20262;-93
2023/09/22 01:06:45;;;;;;;12.55;4.00;;;;;;;;;;6081674;23;20174;-93
2023/09/22 01:09:50;;;;;;;7.65;3.78;;;;;;;;;;6065651;23;20178;-90
2023/09/22 01:12:56;;;;;;;8.48;3.60;;;;;;;;;;6066785;23;20171;-92
2023/09/22 01:16:01;;;;;;;7.50;3.83;;;;;;;;;;6068066;23;20180;-92
2023/09/22 01:19:14;;;;;;;9.45;4.53;;;;;;;;;;6083595;23;20223;-93
2023/09/22 01:22:21;;;;;;;7.00;4.10;;;;;;;;;;6083454;23;20264;-91
2023/09/22 01:25:26;;;;;;;8.85;3.75;;;;;;;;;;6081414;23;20174;-90
2023/09/22 01:28:32;;;;;;;8.90;3.42;;;;;;;;;;6082572;23;20505;-92
2023/09/22 01:31:37;;;;;;;4.63;3.00;;;;;;;;;;6066336;23;20207;-91
2023/09/22 01:34:45;;;;;;;6.78;3.10;;;;;;;;;;6069355;23;20198;-92
2023/09/22 01:37:54;;;;;;;4.10;2.60;;;;;;;;;;6052973;23;20664;-93
2023/09/22 01:41:03;;;;;;;9.65;2.78;;;;;;;;;;6070982;23;20279;-91
2023/09/22 01:44:09;;;;;;;9.45;2.58;;;;;;;;;;6055034;23;20224;-91
2023/09/22 01:47:15;;;;;;;5.45;2.40;;;;;;;;;;6053898;23;20181;-92
2023/09/22 01:50:20;;;;;;;5.25;3.00;;;;;;;;;;6070712;23;20623;-92
2023/09/22 01:53:27;;;;;;;7.30;2.72;;;;;;;;;;6054261;23;20150;-92
2023/09/22 01:56:33;;;;;;;5.78;2.83;;;;;;;;;;6051602;23;20175;-94
2023/09/22 01:59:38;;;;;;;4.55;1.70;;;;;;;;;;6053206;23;20216;-87
2023/09/22 02:02:43;;;;;;;2.88;1.60;;;;;;;;;;6067834;23;20171;-94
2023/09/22 02:05:48;;;;;;;4.00;1.50;;;;;;;;;;6070712;23;20659;-94
2023/09/22 02:08:57;;;;;;;3.92;1.17;;;;;;;;;;6052815;23;20219;-88
2023/09/22 02:12:04;;;;;;;3.20;1.17;;;;;;;;;;6069418;23;20171;-93
2023/09/22 02:15:10;;;;;;;2.25;0.77;;;;;;;;;;6066994;23;20179;-91
2023/09/22 02:18:16;;;;;;;3.33;1.08;;;;;;;;;;6051139;23;20178;-93
2023/09/22 02:21:21;;;;;;;2.47;0.90;;;;;;;;;;6067460;23;20195;-93
2023/09/22 02:24:28;;;;;;;1.75;0.90;;;;;;;;;;6067854;23;20174;-91
2023/09/22 02:27:33;;;;;;;4.03;0.98;;;;;;;;;;6051603;23;20166;-93
2023/09/22 02:30:39;;;;;;;2.33;0.80;;;;;;;;;;6066913;23;20247;-94
2023/09/22 02:33:44;;;;;;;1.17;0.85;;;;;;;;;;6070944;23;20274;-94
2023/09/22 02:36:50;;;;;;;1.42;0.80;;;;;;;;;;6079515;23;20287;-91
2023/09/22 02:39:56;;;;;;;1.58;0.70;;;;;;;;;;6078861;23;20203;-90
2023/09/22 02:43:03;;;;;;;3.15;0.90;;;;;;;;;;6077797;23;20186;-95
2023/09/22 02:46:08;;;;;;;1.17;0.70;;;;;;;;;;6065625;23;20170;-92
2023/09/22 02:49:14;;;;;;;1.75;0.63;;;;;;;;;;6071205;23;20175;-93
2023/09/22 02:52:20;;;;;;;2.22;0.70;;;;;;;;;;6070902;23;20174;-93
2023/09/22 02:55:26;;;;;;;2.42;0.63;;;;;;;;;;6082772;23;20175;-91
2023/09/22 02:58:32;;;;;;;3.67;0.70;;;;;;;;;;6080566;23;20174;-88
2023/09/22 03:01:37;;;;;;;1.55;0.63;;;;;;;;;;6085566;23;20194;-91
2023/09/22 03:04:43;;;;;;;0.77;0.55;;;;;;;;;;6070412;23;20158;-89
2023/09/22 03:07:48;;;;;;;0.95;0.50;;;;;;;;;;6088329;23;20228;-95
2023/09/22 03:10:55;;;;;;;2.67;0.80;;;;;;;;;;6089533;23;20169;-92
2023/09/22 03:14:00;;;;;;;3.50;1.70;;;;;;;;;;6071124;23;20196;-91
2023/09/22 03:17:06;;;;;;;12.52;5.65;;;;;;;;;;6068829;23;20171;-92
2023/09/22 03:20:14;;;;;;;2.35;0.82;;;;;;;;;;6088378;23;20215;-89
2023/09/22 03:23:20;;;;;;;1.50;0.70;;;;;;;;;;6070909;23;20241;-90
2023/09/22 03:26:27;;;;;;;1.08;0.60;;;;;;;;;;6087038;23;20177;-92
2023/09/22 03:29:32;;;;;;;1.27;0.60;;;;;;;;;;6068646;23;20247;-91
2023/09/22 03:32:39;;;;;;;3.00;1.00;;;;;;;;;;6086720;23;20154;-92
2023/09/22 03:35:46;;;;;;;0.57;0.50;;;;;;;;;;6058636;23;20203;-91
2023/09/22 03:38:52;;;;;;;1.23;0.70;;;;;;;;;;6059237;23;20183;-92
2023/09/22 03:41:58;;;;;;;3.42;0.60;;;;;;;;;;6059267;23;20198;-92
2023/09/22 03:45:04;;;;;;;1.73;0.70;;;;;;;;;;6058635;23;20167;-93
2023/09/22 03:48:09;;;;;;;2.58;0.70;;;;;;;;;;6059540;23;20179;-93
2023/09/22 03:51:14;;;;;;;0.77;0.50;;;;;;;;;;6074099;23;20171;-90
2023/09/22 03:54:19;;;;;;;1.90;1.08;;;;;;;;;;6057645;23;20175;-93
2023/09/22 03:57:27;;;;;;;0.63;0.55;;;;;;;;;;6076347;23;20172;-94
2023/09/22 04:00:34;;;;;;;1.15;0.60;;;;;;;;;;6076448;23;20175;-94
2023/09/22 04:03:40;;;;;;;3.58;0.70;;;;;;;;;;6075796;23;20171;-94
2023/09/22 04:06:46;;;;;;;3.15;0.60;;;;;;;;;;6075900;23;20197;-93
2023/09/22 04:09:51;;;;;;;2.25;0.70;;;;;;;;;;6060056;23;20175;-90
2023/09/22 04:12:57;;;;;;;0.88;0.68;;;;;;;;;;6057560;23;20171;-91
2023/09/22 04:16:04;;;;;;;1.50;0.63;;;;;;;;;;6073855;23;20248;-93
2023/09/22 04:19:10;;;;;;;0.60;0.50;;;;;;;;;;6074921;23;20499;-93
2023/09/22 04:22:16;;;;;;;1.67;0.65;;;;;;;;;;6074051;23;20247;-92
2023/09/22 04:25:29;;;;;;;0.63;0.52;;;;;;;;;;6056398;23;20162;-90
2023/09/22 04:28:35;;;;;;;0.70;0.60;;;;;;;;;;6072988;23;20179;-92
2023/09/22 04:31:44;;;;;;;7.43;0.93;;;;;;;;;;6056454;23;20175;-92
2023/09/22 04:34:51;;;;;;;1.38;0.60;;;;;;;;;;6073871;23;20198;-89
2023/09/22 04:37:58;;;;;;;2.83;0.70;;;;;;;;;;6059183;23;20182;-90
2023/09/22 04:41:06;;;;;;;2.10;0.60;;;;;;;;;;6075381;23;20174;-89
2023/09/22 04:44:16;;;;;;;1.33;0.55;;;;;;;;;;6060595;23;20224;-91
2023/09/22 04:50:41;;;;;;;2.75;0.70;;;;;;;;;;6057299;23;20171;-92
2023/09/22 04:53:47;;;;;;;1.92;0.70;;;;;;;;;;6057736;23;20247;-91
2023/09/22 04:56:53;;;;;;;0.50;0.50;;;;;;;;;;6075001;23;20183;-91
2023/09/22 04:59:59;;;;;;;2.35;0.70;;;;;;;;;;6059001;23;20175;-93
2023/09/22 05:03:06;;;;;;;3.60;0.80;;;;;;;;;;6075312;23;20198;-91
2023/09/22 05:06:14;;;;;;;1.65;0.70;;;;;;;;;;6075127;23;20200;-93
2023/09/22 05:09:20;;;;;;;0.95;0.60;;;;;;;;;;6058522;23;20205;-94
2023/09/22 05:12:26;;;;;;;1.55;0.68;;;;;;;;;;6058293;23;20228;-91
2023/09/22 05:15:33;;;;;;;1.25;0.80;;;;;;;;;;6073219;23;20175;-91
2023/09/22 05:18:40;;;;;;;3.15;0.88;;;;;;;;;;6058898;23;20179;-89
2023/09/22 05:21:45;;;;;;;3.67;0.80;;;;;;;;;;6058557;23;20203;-87
2023/09/22 05:24:51;;;;;;;3.25;0.80;;;;;;;;;;6073567;23;20179;-88
2023/09/22 05:27:56;;;;;;;2.85;1.00;;;;;;;;;;6056357;23;20170;-90
2023/09/22 05:31:04;;;;;;;3.33;0.80;;;;;;;;;;6074078;23;20225;-91
2023/09/22 05:34:10;;;;;;;3.08;0.80;;;;;;;;;;6067236;23;20219;-89
2023/09/22 05:37:15;;;;;;;4.30;0.65;;;;;;;;;;6071409;23;20187;-90
2023/09/22 05:40:20;;;;;;;2.05;0.90;;;;;;;;;;6071057;23;20274;-90
2023/09/22 05:43:26;;;;;;;3.45;0.70;;;;;;;;;;6069785;23;20202;-88
2023/09/22 05:46:33;;;;;;;6.10;2.00;;;;;;;;;;6087341;23;20174;-89
2023/09/22 05:49:38;;;;;;;5.13;0.93;;;;;;;;;;6068081;23;20178;-92
2023/09/22 05:52:44;;;;;;;1.05;0.57;;;;;;;;;;6084310;23;20170;-89
2023/09/22 05:55:49;;;;;;;2.22;0.80;;;;;;;;;;6082130;23;20183;-91
2023/09/22 05:58:53;;;;;;;0.73;0.50;;;;;;;;;;6067964;23;20179;-90
2023/09/22 06:02:00;;;;;;;0.70;0.60;;;;;;;;;;6067131;23;20197;-93
2023/09/22 06:05:09;;;;;;;2.15;0.90;;;;;;;;;;6069588;23;20194;-90
2023/09/22 06:08:14;;;;;;;5.53;1.30;;;;;;;;;;6067784;23;20183;-89
2023/09/22 06:11:20;;;;;;;1.27;0.80;;;;;;;;;;6083449;23;20195;-89
2023/09/22 06:14:26;;;;;;;2.72;0.73;;;;;;;;;;6083243;23;20178;-89
2023/09/22 06:17:34;;;;;;;3.40;0.73;;;;;;;;;;6084837;23;20231;-90
2023/09/22 06:20:39;;;;;;;2.42;0.80;;;;;;;;;;6084630;23;20175;-89
2023/09/22 06:23:45;;;;;;;2.00;1.17;;;;;;;;;;6070197;23;20178;-88
2023/09/22 06:26:51;;;;;;;3.83;0.90;;;;;;;;;;6085565;23;20174;-90
2023/09/22 06:29:56;;;;;;;1.33;0.90;;;;;;;;;;6084678;23;20555;-92
2023/09/22 06:33:04;;;;;;;3.67;0.80;;;;;;;;;;6068373;23;20195;-90
2023/09/22 06:36:17;;;;;;;4.78;1.40;;;;;;;;;;6087087;23;20245;-91
2023/09/22 06:39:22;;;;;;;2.05;1.08;;;;;;;;;;6088191;23;20227;-92
2023/09/22 06:42:28;;;;;;;2.90;1.05;;;;;;;;;;6083933;23;20265;-89
2023/09/22 06:45:33;;;;;;;4.70;1.15;;;;;;;;;;6088713;23;20328;-93
2023/09/22 06:48:41;;;;;;;5.75;1.20;;;;;;;;;;6085530;23;20251;-90
2023/09/22 06:51:48;;;;;;;6.68;1.10;;;;;;;;;;6085573;23;20250;-93
2023/09/22 06:55:01;;;;;;;5.40;0.90;;;;;;;;;;6087183;23;20174;-92
2023/09/22 06:58:07;;;;;;;6.60;1.10;;;;;;;;;;6085865;23;20223;-90
2023/09/22 07:01:15;;;;;;;2.95;0.80;;;;;;;;;;6087595;23;20159;-92
2023/09/22 07:04:22;;;;;;;5.68;1.20;;;;;;;;;;6087045;23;20174;-93
2023/09/22 07:14:10;;;;;;;2.90;1.13;;;;;;;;;;6070519;23;20187;-93
2023/09/22 07:17:31;;;;;;;6.05;1.10;;;;;;;;;;6084848;23;20190;-90
2023/09/22 07:20:46;;;;;;;2.20;0.82;;;;;;;;;;6084295;23;20170;-88
2023/09/22 07:23:54;;;;;;;3.78;1.00;;;;;;;;;;6090887;23;20224;-91
2023/09/22 07:26:59;;;;;;;5.65;1.48;;;;;;;;;;6087732;23;20228;-91
2023/09/22 07:30:09;;;;;;;1.58;0.70;;;;;;;;;;6066314;23;20171;-92
2023/09/22 07:33:15;;;;;;;1.67;0.90;;;;;;;;;;6083659;23;20175;-92
2023/09/22 07:36:22;;;;;;;3.92;1.00;;;;;;;;;;6067545;23;20182;-88
2023/09/22 07:42:46;;;;;;;3.58;0.75;;;;;;;;;;6068308;23;20259;-91
2023/09/22 07:45:51;;;;;;;4.75;1.10;;;;;;;;;;6085124;23;20305;-90
2023/09/22 07:48:57;;;;;;;2.60;0.98;;;;;;;;;;6087677;23;20174;-91
2023/09/22 07:52:09;;;;;;;3.92;0.90;;;;;;;;;;6086554;23;20175;-90
2023/09/22 07:55:15;;;;;;;7.68;1.10;;;;;;;;;;6084735;23;20182;-91
2023/09/22 08:01:42;;;;;;;11.05;1.20;;;;;;;;;;6068930;23;20250;-91
2023/09/22 08:04:48;;;;;;;2.45;0.70;;;;;;;;;;6086346;23;20234;-88
2023/09/22 08:07:55;;;;;;;1.58;0.80;;;;;;;;;;6083752;23;20289;-91
2023/09/22 08:11:01;;;;;;;3.28;1.20;;;;;;;;;;6081427;23;20203;-90
2023/09/22 08:14:06;;;;;;;2.15;0.80;;;;;;;;;;6082898;23;20182;-90
2023/09/22 08:17:15;;;;;;;1.92;0.70;;;;;;;;;;6080847;23;20174;-90
2023/09/22 08:20:20;;;;;;;1.42;0.60;;;;;;;;;;6090620;23;20198;-91
2023/09/22 08:23:27;;;;;;;2.83;0.75;;;;;;;;;;6083513;23;20270;-91
2023/09/22 08:26:32;;;;;;;1.63;0.88;;;;;;;;;;6080328;23;20225;-91
2023/09/22 08:29:39;;;;;;;2.45;1.00;;;;;;;;;;6082055;23;20177;-92
2023/09/22 08:32:45;;;;;;;1.50;0.90;;;;;;;;;;6080488;23;20183;-88
2023/09/22 08:35:51;;;;;;;1.85;1.10;;;;;;;;;;6082070;23;20202;-92
2023/09/22 08:38:58;;;;;;;3.42;1.50;;;;;;;;;;6081073;23;20218;-92
2023/09/22 08:42:04;;;;;;;3.47;1.40;;;;;;;;;;6079282;23;20174;-92
2023/09/22 08:45:09;;;;;;;3.50;1.33;;;;;;;;;;6084219;23;20174;-93
2023/09/22 08:48:14;;;;;;;2.33;1.27;;;;;;;;;;6082671;23;20179;-90
2023/09/22 08:51:19;;;;;;;2.15;1.27;;;;;;;;;;6082480;23;20195;-92
2023/09/22 08:54:28;;;;;;;3.35;1.23;;;;;;;;;;6084571;23;20186;-94
2023/09/22 08:57:33;;;;;;;1.10;0.98;;;;;;;;;;6083709;23;20174;-91
2023/09/22 09:00:38;;;;;;;1.88;1.20;;;;;;;;;;6084743;23;20249;-91
2023/09/22 09:03:44;;;;;;;4.40;1.70;;;;;;;;;;6084964;23;20285;-93
2023/09/22 09:06:53;;;;;;;1.40;0.85;;;;;;;;;;6067089;23;20251;-93
2023/09/22 09:10:00;;;;;;;1.67;1.17;;;;;;;;;;6084226;23;20214;-90
2023/09/22 09:13:07;;;;;;;1.10;0.80;;;;;;;;;;6083688;23;20509;-88
2023/09/22 09:16:13;;;;;;;2.05;0.90;;;;;;;;;;6082947;23;20466;-88
2023/09/22 09:19:20;;;;;;;3.08;1.17;;;;;;;;;;6081123;23;20173;-86
2023/09/22 09:22:33;;;;;;;4.20;1.10;;;;;;;;;;6078623;23;20226;-87
2023/09/22 09:25:44;;;;;;;2.42;0.90;;;;;;;;;;6076623;23;20174;-89
2023/09/22 09:28:49;;;;;;;2.45;1.17;;;;;;;;;;6079385;23;20174;-91
2023/09/22 09:31:55;;;;;;;4.05;0.95;;;;;;;;;;6083803;23;20166;-89
2023/09/22 09:35:05;;;;;;;2.13;0.85;;;;;;;;;;6078550;23;20194;-90
2023/09/22 09:38:15;;;;;;;2.95;1.65;;;;;;;;;;6078579;23;20187;-88
2023/09/22 09:41:23;;;;;;;3.58;1.10;;;;;;;;;;6061534;23;20182;-88
2023/09/22 09:44:28;;;;;;;2.58;0.90;;;;;;;;;;6079931;23;20198;-89
2023/09/22 09:47:35;;;;;;;3.05;1.10;;;;;;;;;;6077560;23;20179;-88
2023/09/22 09:50:42;;;;;;;2.83;1.00;;;;;;;;;;6077281;23;20219;-89
2023/09/22 09:53:53;;;;;;;1.85;0.90;;;;;;;;;;6064434;23;20274;-85
2023/09/22 09:57:04;;;;;;;1.48;0.80;;;;;;;;;;6066010;23;20215;-89
2023/09/22 10:00:13;;;;;;;2.05;0.80;;;;;;;;;;6062802;23;20250;-89
2023/09/22 10:03:22;;;;;;;1.75;1.10;;;;;;;;;;6063891;23;20193;-87
2023/09/22 10:06:27;;;;;;;1.80;1.00;;;;;;;;;;6063721;23;20170;-86
2023/09/22 10:09:33;;;;;;;2.28;1.08;;;;;;;;;;6062064;23;20283;-91
2023/09/22 10:12:40;;;;;;;1.25;0.88;;;;;;;;;;6082761;23;20174;-92
2023/09/22 10:15:52;;;;;;;1.58;0.90;;;;;;;;;;6079115;23;20182;-88
2023/09/22 10:18:59;;;;;;;3.65;0.80;;;;;;;;;;6078215;23;20186;-87
2023/09/22 10:22:12;;;;;;;2.05;1.00;;;;;;;;;;6061539;23;20508;-89
2023/09/22 10:25:24;;;;;;;4.05;1.30;;;;;;;;;;6080476;23;20218;-91
2023/09/22 10:28:31;;;;;;;1.38;0.90;;;;;;;;;;6078247;23;20634;-87
2023/09/22 10:31:36;;;;;;;1.88;1.00;;;;;;;;;;6077663;23;20178;-89
2023/09/22 10:34:47;;;;;;;1.00;0.70;;;;;;;;;;6049585;23;20198;-90
2023/09/22 10:37:59;;;;;;;2.05;0.90;;;;;;;;;;6066863;23;20196;-89
2023/09/22 10:41:05;;;;;;;1.50;1.00;;;;;;;;;;6049318;23;20175;-90
2023/09/22 10:44:15;;;;;;;1.30;0.80;;;;;;;;;;6067105;23;20655;-85
2023/09/22 10:47:20;;;;;;;1.45;1.00;;;;;;;;;;6066545;23;20172;-88
2023/09/22 10:50:30;;;;;;;1.80;0.95;;;;;;;;;;6049458;23;20175;-89
2023/09/22 10:53:39;;;;;;;1.75;1.10;;;;;;;;;;6067765;23;20166;-87
2023/09/22 10:56:44;;;;;;;3.65;1.35;;;;;;;;;;6065687;23;20174;-91
2023/09/22 10:59:51;;;;;;;5.53;1.40;;;;;;;;;;6066676;23;20166;-87
2023/09/22 11:03:04;;;;;;;4.28;1.15;;;;;;;;;;6047027;23;20202;-87
2023/09/22 11:06:10;;;;;;;1.73;1.27;;;;;;;;;;6050669;23;20179;-89
2023/09/22 11:09:15;;;;;;;1.65;0.90;;;;;;;;;;6071213;23;20175;-91
2023/09/22 11:12:21;;;;;;;2.85;1.20;;;;;;;;;;6069676;23;20241;-90
2023/09/22 11:15:28;;;;;;;1.50;1.10;;;;;;;;;;6071706;23;20235;-91
2023/09/22 11:18:35;;;;;;;1.50;0.90;;;;;;;;;;6068033;23;20241;-86
2023/09/22 11:21:40;;;;;;;1.95;1.30;;;;;;;;;;6051145;23;20167;-89
2023/09/22 11:24:46;;;;;;;3.33;0.98;;;;;;;;;;6051821;23;20243;-87
2023/09/22 11:27:52;;;;;;;2.28;1.50;;;;;;;;;;6051765;23;20163;-91
2023/09/22 11:31:06;;;;;;;2.50;1.10;;;;;;;;;;6056228;23;20228;-89
2023/09/22 11:34:13;;;;;;;2.67;1.50;;;;;;;;;;6064284;23;20198;-90
2023/09/22 11:37:31;;;;;;;2.33;1.20;;;;;;;;;;6068321;23;20154;-91
2023/09/22 11:40:40;;;;;;;4.25;1.58;;;;;;;;;;6066721;23;20167;-89
2023/09/22 11:43:48;;;;;;;1.70;1.10;;;;;;;;;;6066547;23;20258;-86
2023/09/22 11:46:55;;;;;;;4.30;1.30;;;;;;;;;;6065357;23;20174;-88
2023/09/22 11:50:01;;;;;;;1.63;1.00;;;;;;;;;;6068915;23;20244;-89
2023/09/22 11:53:11;;;;;;;4.65;1.05;;;;;;;;;;6070111;23;20200;-87
2023/09/22 11:56:16;;;;;;;2.22;1.10;;;;;;;;;;6083518;23;20173;-87
2023/09/22 11:59:22;;;;;;;2.20;1.10;;;;;;;;;;6064757;23;20174;-92
2023/09/22 12:02:28;;;;;;;2.45;1.23;;;;;;;;;;6064015;23;20183;-87
2023/09/22 12:05:36;;;;;;;1.38;1.02;;;;;;;;;;6080128;23;20170;-91
2023/09/22 12:08:44;;;;;;;1.40;1.00;;;;;;;;;;6081059;23;20170;-89
2023/09/22 12:11:50;;;;;;;1.80;1.30;;;;;;;;;;6081648;23;20218;-92
2023/09/22 12:14:55;;;;;;;2.67;1.35;;;;;;;;;;6064116;23;20550;-88
2023/09/22 12:18:03;;;;;;;2.30;1.30;;;;;;;;;;6063290;23;20273;-92
2023/09/22 12:21:08;;;;;;;2.10;1.38;;;;;;;;;;6082072;23;20178;-91
2023/09/22 12:24:14;;;;;;;3.38;1.35;;;;;;;;;;6064301;23;20229;-92
2023/09/22 12:27:20;;;;;;;4.07;2.00;;;;;;;;;;6066107;23;20200;-90
2023/09/22 12:30:26;;;;;;;2.90;1.60;;;;;;;;;;6065816;23;20174;-91
2023/09/22 12:33:32;;;;;;;3.00;1.85;;;;;;;;;;6064718;23;20183;-90
2023/09/22 12:36:37;;;;;;;6.55;2.25;;;;;;;;;;6063776;23;20266;-89
2023/09/22 12:39:47;;;;;;;7.88;2.08;;;;;;;;;;6080686;23;20174;-89
2023/09/22 12:42:56;;;;;;;3.58;2.10;;;;;;;;;;6068179;23;20166;-92
2023/09/22 12:46:02;;;;;;;4.85;2.10;;;;;;;;;;6084783;23;20174;-91
2023/09/22 12:49:09;;;;;;;4.43;2.10;;;;;;;;;;6067533;23;20166;-91
2023/09/22 12:52:18;;;;;;;3.35;2.05;;;;;;;;;;6084621;23;20227;-89
2023/09/22 12:55:27;;;;;;;3.45;1.70;;;;;;;;;;6065540;23;20185;-90
2023/09/22 12:58:34;;;;;;;3.55;1.80;;;;;;;;;;6081842;23;20174;-88
2023/09/22 13:01:39;;;;;;;4.40;1.58;;;;;;;;;;6081017;23;20197;-87
2023/09/22 13:04:47;;;;;;;4.95;2.60;;;;;;;;;;6066170;23;20608;-89
2023/09/22 13:07:53;;;;;;;2.17;1.63;;;;;;;;;;6080017;23;20170;-91
2023/09/22 13:10:58;;;;;;;2.15;1.45;;;;;;;;;;6082344;23;20175;-91
2023/09/22 13:14:03;;;;;;;2.50;1.40;;;;;;;;;;6065490;23;20174;-88
2023/09/22 13:17:08;;;;;;;2.05;1.40;;;;;;;;;;6080829;23;20291;-87
2023/09/22 13:20:16;;;;;;;4.35;1.77;;;;;;;;;;6082760;23;20171;-90
2023/09/22 13:23:22;;;;;;;1.80;1.30;;;;;;;;;;6082158;23;20249;-90
2023/09/22 13:26:28;;;;;;;2.97;1.30;;;;;;;;;;6081670;23;20181;-88
2023/09/22 13:29:33;;;;;;;2.15;1.10;;;;;;;;;;6081927;23;20178;-88
2023/09/22 13:32:46;;;;;;;5.93;1.90;;;;;;;;;;6065370;23;20175;-91
2023/09/22 13:35:55;;;;;;;2.70;1.40;;;;;;;;;;6080420;23;20174;-88
2023/09/22 13:39:00;;;;;;;2.30;1.20;;;;;;;;;;6061930;23;20175;-91
2023/09/22 13:42:06;;;;;;;3.45;1.40;;;;;;;;;;6066375;23;20211;-88
2023/09/22 13:45:11;;;;;;;3.67;1.30;;;;;;;;;;6079251;23;20234;-89
2023/09/22 13:48:17;;;;;;;8.20;2.80;;;;;;;;;;6063373;23;20174;-88
2023/09/22 13:51:24;;;;;;;2.60;1.30;;;;;;;;;;6078327;23;20245;-92
2023/09/22 13:54:29;;;;;;;1.88;1.30;;;;;;;;;;6062886;23;20170;-90
2023/09/22 13:57:34;;;;;;;4.70;1.58;;;;;;;;;;6079157;23;20221;-88
2023/09/22 14:00:39;;;;;;;4.57;1.60;;;;;;;;;;6077431;23;20227;-87
2023/09/22 14:03:44;;;;;;;3.35;1.48;;;;;;;;;;6077895;23;20251;-90
2023/09/22 14:06:50;;;;;;;2.40;1.40;;;;;;;;;;6062096;23;20178;-88
2023/09/22 14:09:55;;;;;;;3.72;1.63;;;;;;;;;;6064442;23;20174;-86
2023/09/22 14:13:01;;;;;;;3.03;1.33;;;;;;;;;;6079554;23;20174;-87
2023/09/22 14:16:06;;;;;;;2.35;1.30;;;;;;;;;;6077820;23;20170;-89
2023/09/22 14:19:11;;;;;;;4.10;1.40;;;;;;;;;;6079198;23;20178;-88
2023/09/22 14:22:18;;;;;;;3.53;1.60;;;;;;;;;;6063912;23;20175;-91
2023/09/22 14:25:24;;;;;;;2.90;1.13;;;;;;;;;;6082046;23;20261;-87
2023/09/22 14:28:34;;;;;;;6.20;3.35;;;;;;;;;;6062423;23;20251;-91
2023/09/22 14:31:38;;;;;;;2.17;1.33;;;;;;;;;;6061776;23;20678;-90
2023/09/22 14:34:44;;;;;;;2.88;1.65;;;;;;;;;;6079151;23;20230;-87
2023/09/22 14:37:51;;;;;;;3.28;1.70;;;;;;;;;;6065543;23;20214;-90
2023/09/22 14:40:56;;;;;;;2.60;1.80;;;;;;;;;;6079628;23;20181;-90
2023/09/22 14:44:01;;;;;;;3.08;1.55;;;;;;;;;;6078861;23;20194;-91
2023/09/22 14:47:06;;;;;;;3.00;1.70;;;;;;;;;;6082212;23;20158;-89
2023/09/22 14:50:12;;;;;;;2.38;1.58;;;;;;;;;;6062755;23;20162;-88
2023/09/22 14:53:18;;;;;;;3.42;2.13;;;;;;;;;;6063706;23;20177;-89
2023/09/22 14:56:23;;;;;;;2.65;1.60;;;;;;;;;;6063977;23;20534;-91
2023/09/22 14:59:29;;;;;;;3.08;1.60;;;;;;;;;;6081665;23;20182;-89
2023/09/22 15:02:34;;;;;;;2.63;1.70;;;;;;;;;;6064036;23;20193;-90
2023/09/22 15:05:42;;;;;;;2.35;1.55;;;;;;;;;;6083700;23;20265;-92
2023/09/22 15:08:50;;;;;;;2.78;1.38;;;;;;;;;;6065140;23;20178;-91
2023/09/22 15:11:57;;;;;;;2.67;0.98;;;;;;;;;;6083286;23;20332;-93
2023/09/22 15:15:09;;;;;;;1.25;0.93;;;;;;;;;;6082919;23;20171;-89
2023/09/22 15:18:14;;;;;;;2.97;1.05;;;;;;;;;;6066865;23;20223;-92
2023/09/22 15:21:22;;;;;;;4.53;1.50;;;;;;;;;;6068091;23;20232;-90
2023/09/22 15:24:33;;;;;;;2.95;1.10;;;;;;;;;;6067338;23;20198;-92
2023/09/22 15:27:40;;;;;;;1.80;1.20;;;;;;;;;;6067656;23;20251;-90
2023/09/22 15:31:01;;;;;;;3.75;1.40;;;;;;;;;;6067468;23;20234;-89
2023/09/22 15:34:09;;;;;;;3.50;1.23;;;;;;;;;;6063361;23;20242;-90
2023/09/22 15:41:04;;;;;;;1.75;1.25;;;;;;;;;;6063602;23;20194;-91
2023/09/22 15:44:16;;;;;;;3.92;1.30;;;;;;;;;;6064497;23;20177;-88
2023/09/22 15:47:25;;;;;;;3.65;1.50;;;;;;;;;;6065557;23;20162;-90
2023/09/22 15:50:32;;;;;;;5.00;1.20;;;;;;;;;;6078712;23;20174;-91
2023/09/22 15:53:48;;;;;;;5.70;2.00;;;;;;;;;;6081248;23;20170;-91
2023/09/22 15:56:56;;;;;;;4.55;1.98;;;;;;;;;;6081538;23;20207;-92
2023/09/22 16:00:09;;;;;;;2.60;1.60;;;;;;;;;;6063589;23;20155;-89
2023/09/22 16:03:17;;;;;;;4.60;1.60;;;;;;;;;;6081274;23;20177;-93
2023/09/22 16:06:22;;;;;;;4.65;1.95;;;;;;;;;;6063074;23;20174;-91
2023/09/22 16:09:32;;;;;;;3.50;1.85;;;;;;;;;;6066820;23;20222;-88
2023/09/22 16:12:42;;;;;;;5.95;2.10;;;;;;;;;;6064055;23;20627;-88
2023/09/22 16:15:48;;;;;;;2.83;1.77;;;;;;;;;;6062900;23;20250;-86
2023/09/22 16:18:59;;;;;;;3.05;1.60;;;;;;;;;;6065121;23;20182;-88
2023/09/22 16:22:05;;;;;;;2.97;1.58;;;;;;;;;;6080687;23;20174;-92
2023/09/22 16:25:11;;;;;;;6.70;2.17;;;;;;;;;;6079534;23;20715;-90
2023/09/22 16:28:19;;;;;;;4.28;2.08;;;;;;;;;;6079492;23;20190;-92
2023/09/22 16:31:26;;;;;;;5.35;1.90;;;;;;;;;;6064355;23;20183;-91
2023/09/22 16:34:32;;;;;;;8.48;2.88;;;;;;;;;;6049834;23;20535;-88
2023/09/22 16:37:38;;;;;;;5.93;2.55;;;;;;;;;;6056104;23;20175;-88
2023/09/22 16:40:46;;;;;;;5.82;3.10;;;;;;;;;;6068205;23;20171;-89
2023/09/22 16:43:53;;;;;;;5.10;2.47;;;;;;;;;;6051990;23;20171;-89
2023/09/22 16:46:58;;;;;;;4.10;2.40;;;;;;;;;;6056068;23;20159;-88
2023/09/22 16:50:03;;;;;;;3.00;1.88;;;;;;;;;;6070325;23;20216;-88
2023/09/22 16:53:09;;;;;;;4.57;2.00;;;;;;;;;;6068396;23;20252;-91
2023/09/22 16:56:14;;;;;;;3.83;1.80;;;;;;;;;;6068879;23;20167;-88
2023/09/22 16:59:21;;;;;;;4.82;2.13;;;;;;;;;;6054249;23;20180;-88
2023/09/22 17:02:26;;;;;;;4.68;2.00;;;;;;;;;;6068035;23;20268;-90
2023/09/22 17:05:33;;;;;;;5.45;2.58;;;;;;;;;;6068933;23;20203;-90
2023/09/22 17:08:38;;;;;;;5.63;2.40;;;;;;;;;;6069364;23;20187;-92
2023/09/22 17:11:46;;;;;;;7.07;2.70;;;;;;;;;;6068105;23;20174;-89
2023/09/22 17:14:53;;;;;;;3.97;1.90;;;;;;;;;;6069544;23;20624;-91
2023/09/22 17:17:58;;;;;;;7.68;2.30;;;;;;;;;;6071637;23;20197;-89
2023/09/22 17:21:05;;;;;;;4.57;2.47;;;;;;;;;;6059409;23;20243;-90
2023/09/22 17:24:10;;;;;;;6.18;2.45;;;;;;;;;;6075352;23;20178;-87
2023/09/22 17:27:16;;;;;;;5.88;2.08;;;;;;;;;;6072198;23;20229;-88
2023/09/22 17:30:25;;;;;;;5.32;2.03;;;;;;;;;;6071840;23;20212;-91
2023/09/22 17:33:30;;;;;;;5.25;2.10;;;;;;;;;;6057731;23;20178;-89
2023/09/22 17:36:37;;;;;;;8.13;3.30;;;;;;;;;;6086715;23;20224;-88
2023/09/22 17:39:42;;;;;;;4.50;1.48;;;;;;;;;;6068965;23;20174;-88
2023/09/22 17:42:50;;;;;;;2.80;1.65;;;;;;;;;;6069420;23;20211;-91
2023/09/22 17:46:00;;;;;;;5.38;1.50;;;;;;;;;;6069216;23;20201;-92
2023/09/22 17:49:06;;;;;;;6.13;1.77;;;;;;;;;;6070574;23;20289;-90
2023/09/22 17:52:11;;;;;;;4.35;1.35;;;;;;;;;;6065998;23;20170;-91
2023/09/22 17:55:16;;;;;;;3.47;1.95;;;;;;;;;;6081537;23;20166;-90
2023/09/22 17:58:22;;;;;;;3.00;1.65;;;;;;;;;;6065951;23;20174;-89
2023/09/22 18:01:29;;;;;;;4.85;1.70;;;;;;;;;;6082967;23;20174;-92
2023/09/22 18:04:34;;;;;;;3.03;1.52;;;;;;;;;;6080898;23;20175;-88
2023/09/22 18:07:39;;;;;;;7.38;1.70;;;;;;;;;;6064231;23;20174;-88
2023/09/22 18:10:48;;;;;;;5.43;2.05;;;;;;;;;;6082992;23;20174;-87
2023/09/22 18:13:53;;;;;;;6.57;2.00;;;;;;;;;;6068690;23;20234;-89
2023/09/22 18:17:02;;;;;;;7.18;2.00;;;;;;;;;;6082382;23;20174;-92
2023/09/22 18:20:09;;;;;;;5.18;2.88;;;;;;;;;;6064130;23;20223;-92
2023/09/22 18:23:14;;;;;;;4.05;2.10;;;;;;;;;;6087188;23;20223;-91
2023/09/22 18:26:20;;;;;;;7.95;4.93;;;;;;;;;;6064360;23;20263;-91
2023/09/22 18:29:28;;;;;;;5.00;2.10;;;;;;;;;;6064875;23;20170;-88
2023/09/22 18:32:36;;;;;;;6.97;3.45;;;;;;;;;;6079829;23;20178;-90
2023/09/22 18:35:44;;;;;;;6.13;2.90;;;;;;;;;;6054119;23;20194;-91
2023/09/22 18:38:50;;;;;;;4.15;2.20;;;;;;;;;;6069126;23;20197;-93
2023/09/22 18:41:57;;;;;;;4.60;1.90;;;;;;;;;;6052393;23;20189;-91
2023/09/22 18:45:02;;;;;;;2.22;1.52;;;;;;;;;;6050527;23;20303;-89
2023/09/22 18:48:11;;;;;;;4.05;1.92;;;;;;;;;;6051824;23;20310;-91
2023/09/22 18:51:18;;;;;;;3.03;1.70;;;;;;;;;;6068369;23;20608;-91
2023/09/22 18:54:24;;;;;;;2.47;1.27;;;;;;;;;;6069664;23;20178;-89
2023/09/22 18:57:29;;;;;;;2.55;1.40;;;;;;;;;;6068199;23;20170;-91
2023/09/22 19:00:35;;;;;;;6.80;2.33;;;;;;;;;;6068699;23;20186;-90